Time;durP1;ratioP1;P1;durP2;ratioP2;P2;SDS_P1;SDS_P2;PMS_P1;PMS_P2;Temp;Humidity;BMP_temperature;BMP_pressure;BME280_temperature;BME280_humidity;BME280_pressure;Samples;Min_cycle;Max_cycle;Signal;HPM_P1;HPM_P2
2022/07/21 00:01:24;;;;;;;2.98;1.02;;;;;;;15.22;60.50;99481.33;1747989;82;21044;-74
2022/07/21 00:03:51;;;;;;;2.10;1.22;;;;;;;15.18;60.52;99476.27;1747913;82;21809;-75
2022/07/21 00:06:18;;;;;;;2.05;1.35;;;;;;;15.15;60.66;99481.77;1747763;82;21011;-75
2022/07/21 00:08:45;;;;;;;4.00;1.20;;;;;;;15.13;60.80;99480.52;1748105;82;21102;-75
2022/07/21 00:11:11;;;;;;;2.70;1.37;;;;;;;15.10;60.92;99474.06;1748239;82;21160;-75
2022/07/21 00:13:38;;;;;;;4.05;1.32;;;;;;;15.09;61.10;99476.78;1747964;82;21107;-75
2022/07/21 00:16:05;;;;;;;3.05;1.20;;;;;;;15.05;61.38;99476.10;1747718;82;21125;-74
2022/07/21 00:18:34;;;;;;;5.65;1.77;;;;;;;15.02;61.36;99476.26;1744366;82;21475;-75
2022/07/21 00:21:00;;;;;;;1.30;1.20;;;;;;;15.00;61.41;99478.98;1742110;82;21586;-75
2022/07/21 00:23:28;;;;;;;5.17;1.50;;;;;;;14.95;61.53;99476.21;1742048;82;21008;-75
2022/07/21 00:25:55;;;;;;;7.67;1.60;;;;;;;14.91;61.75;99486.56;1742034;82;21095;-75
2022/07/21 00:28:22;;;;;;;5.10;1.50;;;;;;;14.82;62.15;99486.59;1741802;82;21506;-75
2022/07/21 00:30:49;;;;;;;3.02;1.60;;;;;;;14.74;62.34;99488.30;1742104;82;21047;-74
2022/07/21 00:33:16;;;;;;;5.95;1.82;;;;;;;14.70;62.56;99489.41;1742015;82;21051;-75
2022/07/21 00:35:43;;;;;;;2.75;1.90;;;;;;;14.65;62.94;99485.67;1742138;82;21012;-75
2022/07/21 00:38:10;;;;;;;4.62;1.45;;;;;;;14.61;63.31;99489.91;1742268;82;21055;-75
2022/07/21 00:40:36;;;;;;;3.35;2.10;;;;;;;14.56;63.33;99486.58;1741969;82;21957;-75
2022/07/21 00:43:03;;;;;;;6.15;2.00;;;;;;;14.52;63.56;99484.55;1742317;82;21555;-75
2022/07/21 00:45:30;;;;;;;5.62;2.20;;;;;;;14.46;63.71;99487.06;1742213;82;21044;-74
2022/07/21 00:47:58;;;;;;;4.67;1.92;;;;;;;14.43;63.80;99486.37;1745641;80;21481;-75
2022/07/21 00:50:24;;;;;;;5.70;2.12;;;;;;;14.39;63.92;99482.14;1778214;80;20996;-75
2022/07/21 00:52:52;;;;;;;2.67;1.90;;;;;;;14.37;63.93;99482.22;1781032;80;21887;-75
2022/07/21 00:55:20;;;;;;;3.08;1.92;;;;;;;14.35;64.17;99482.77;1781011;80;21629;-78
2022/07/21 00:57:47;;;;;;;3.05;1.75;;;;;;;14.35;64.16;99478.80;1781078;80;21122;-78
2022/07/21 01:00:24;;;;;;;3.20;1.92;;;;;;;14.35;64.16;99484.09;1781218;80;22037;-78
2022/07/21 01:02:51;;;;;;;4.28;1.90;;;;;;;14.35;64.17;99487.22;1781426;80;21146;-78
2022/07/21 01:05:18;;;;;;;3.95;1.60;;;;;;;14.32;64.23;99485.57;1781179;80;21324;-78
2022/07/21 01:07:51;;;;;;;10.88;1.67;;;;;;;14.35;64.31;99480.13;1781084;80;21059;-78
2022/07/21 01:10:21;;;;;;;2.02;1.67;;;;;;;14.36;64.53;99484.98;1781331;80;21039;-78
2022/07/21 01:12:47;;;;;;;5.03;2.08;;;;;;;14.32;64.56;99484.25;1781414;80;21031;-78
2022/07/21 01:15:15;;;;;;;3.17;1.40;;;;;;;14.30;64.48;99491.41;1781159;80;21090;-78
2022/07/21 01:17:43;;;;;;;3.92;1.77;;;;;;;14.28;64.65;99484.03;1779761;80;21596;-78
2022/07/21 01:20:14;;;;;;;4.25;2.00;;;;;;;14.29;64.52;99489.72;1750125;80;21013;-78
2022/07/21 01:22:44;;;;;;;1.50;1.40;;;;;;;14.29;64.50;99485.75;1747914;82;20999;-78
2022/07/21 01:25:11;;;;;;;10.93;1.75;;;;;;;14.26;64.54;99484.10;1747733;82;21598;-78
2022/07/21 01:27:38;;;;;;;6.33;1.60;;;;;;;14.24;64.67;99481.13;1747827;82;21513;-78
2022/07/21 01:30:11;;;;;;;3.83;1.40;;;;;;;14.21;64.77;99476.02;1747762;82;22109;-77
2022/07/21 01:32:36;;;;;;;8.93;1.90;;;;;;;14.20;64.87;99474.29;1747232;82;21030;-78
2022/07/21 01:35:05;;;;;;;3.08;1.90;;;;;;;14.16;65.10;99468.78;1747682;82;21080;-78
2022/07/21 01:37:37;;;;;;;3.72;1.90;;;;;;;14.13;65.26;99472.42;1747762;82;21072;-77
2022/07/21 01:42:52;;;;;;;4.20;1.55;;;;;;;14.11;65.92;99472.97;1749391;82;21125;-78
2022/07/21 01:45:19;;;;;;;3.42;1.70;;;;;;;14.12;65.64;99468.92;1747685;82;21006;-78
2022/07/21 01:47:46;;;;;;;5.78;1.45;;;;;;;14.11;65.59;99467.20;1748034;82;20962;-78
2022/07/21 01:50:12;;;;;;;5.08;1.70;;;;;;;14.10;65.40;99468.16;1747878;82;21092;-78
2022/07/21 01:52:40;;;;;;;1.60;1.40;;;;;;;14.09;65.64;99466.42;1747772;82;21092;-78
2022/07/21 01:55:07;;;;;;;2.22;1.60;;;;;;;14.05;65.43;99467.97;1747546;82;21666;-78
2022/07/21 01:57:35;;;;;;;3.10;1.50;;;;;;;14.02;65.42;99463.70;1747759;82;21030;-78
2022/07/21 02:00:03;;;;;;;3.15;1.60;;;;;;;13.98;65.46;99459.48;1747975;82;21085;-78
2022/07/21 02:02:31;;;;;;;2.40;1.65;;;;;;;13.97;65.57;99469.69;1747611;82;21144;-78
2022/07/21 02:04:58;;;;;;;5.72;1.40;;;;;;;13.96;65.65;99464.48;1747775;82;21064;-78
2022/07/21 02:07:25;;;;;;;3.15;1.62;;;;;;;13.93;65.88;99461.50;1747852;82;22054;-77
2022/07/21 02:09:52;;;;;;;4.12;1.50;;;;;;;13.89;66.00;99463.92;1747854;82;21006;-77
2022/07/21 02:12:19;;;;;;;1.57;1.47;;;;;;;13.84;66.24;99461.97;1747784;82;21108;-78
2022/07/21 02:14:46;;;;;;;9.58;1.70;;;;;;;13.82;66.46;99459.84;1747764;82;21073;-78
2022/07/21 02:17:14;;;;;;;15.10;2.40;;;;;;;13.80;66.57;99462.59;1747927;82;21085;-78
2022/07/21 02:19:42;;;;;;;15.95;2.80;;;;;;;13.78;66.69;99464.90;1747525;82;21540;-77
2022/07/21 02:22:09;;;;;;;14.35;2.87;;;;;;;13.75;66.79;99461.48;1747627;82;21119;-78
2022/07/21 02:24:36;;;;;;;9.75;2.47;;;;;;;13.71;66.90;99459.90;1747686;82;21011;-78
2022/07/21 02:27:03;;;;;;;14.33;2.45;;;;;;;13.67;67.09;99455.70;1747838;82;21010;-78
2022/07/21 02:29:31;;;;;;;6.78;1.80;;;;;;;13.65;67.36;99460.22;1747886;82;21060;-78
2022/07/21 02:31:57;;;;;;;13.15;2.10;;;;;;;13.61;67.48;99455.98;1747965;82;21838;-78
2022/07/21 02:34:24;;;;;;;12.00;2.42;;;;;;;13.58;67.64;99455.28;1747725;82;21073;-78
2022/07/21 02:36:51;;;;;;;9.78;2.20;;;;;;;13.51;67.90;99448.11;1747735;82;21005;-77
2022/07/21 02:39:18;;;;;;;7.80;2.00;;;;;;;13.49;67.83;99447.34;1747457;82;21005;-78
2022/07/21 02:41:45;;;;;;;10.08;2.50;;;;;;;13.51;68.11;99456.04;1747480;82;21070;-78
2022/07/21 02:44:12;;;;;;;6.58;2.20;;;;;;;13.54;68.18;99450.61;1747886;82;21232;-78
2022/07/21 02:46:38;;;;;;;3.83;2.30;;;;;;;13.54;68.24;99451.94;1748032;82;21087;-78
2022/07/21 02:49:05;;;;;;;4.85;2.05;;;;;;;13.56;68.58;99452.71;1747952;82;21092;-77
2022/07/21 02:51:31;;;;;;;4.08;2.10;;;;;;;13.56;68.76;99446.10;1747750;82;21013;-78
2022/07/21 02:53:59;;;;;;;5.30;2.17;;;;;;;13.54;68.71;99444.01;1748059;82;21067;-78
2022/07/21 02:56:26;;;;;;;7.03;2.20;;;;;;;13.55;69.02;99444.41;1749949;80;21113;-78
2022/07/21 02:58:52;;;;;;;5.87;2.30;;;;;;;13.56;69.10;99444.78;1734104;82;21108;-78
2022/07/21 03:01:20;;;;;;;4.92;2.00;;;;;;;13.59;69.18;99442.00;1698911;84;21048;-78
2022/07/21 03:03:48;;;;;;;9.10;2.90;;;;;;;13.62;69.49;99441.86;1693940;84;21648;-77
2022/07/21 03:06:14;;;;;;;4.33;2.40;;;;;;;13.68;69.89;99441.53;1694007;84;21111;-76
2022/07/21 03:08:41;;;;;;;9.38;2.55;;;;;;;13.72;69.79;99441.80;1693818;84;21083;-76
2022/07/21 03:11:07;;;;;;;9.58;2.62;;;;;;;13.75;69.62;99446.94;1693863;84;21031;-77
2022/07/21 03:13:34;;;;;;;4.35;2.40;;;;;;;13.75;69.46;99444.30;1693941;84;21087;-76
2022/07/21 03:16:01;;;;;;;9.80;2.80;;;;;;;13.75;69.56;99439.00;1693618;84;21087;-76
2022/07/21 03:18:28;;;;;;;5.00;3.55;;;;;;;13.73;69.75;99436.03;1693819;83;21237;-76
2022/07/21 03:20:54;;;;;;;6.70;3.42;;;;;;;13.69;69.87;99439.30;1694030;84;21154;-76
2022/07/21 03:23:21;;;;;;;9.30;4.10;;;;;;;13.68;70.01;99434.92;1693756;84;21083;-77
2022/07/21 03:25:48;;;;;;;8.73;3.98;;;;;;;13.69;70.09;99437.97;1726226;82;20995;-76
2022/07/21 03:28:14;;;;;;;7.12;3.67;;;;;;;13.68;70.29;99438.89;1732078;82;21172;-76
2022/07/21 03:30:43;;;;;;;8.53;3.00;;;;;;;13.66;70.29;99432.83;1731874;82;21133;-76
2022/07/21 03:33:09;;;;;;;4.28;2.52;;;;;;;13.66;70.17;99436.80;1732027;82;21200;-77
2022/07/21 03:35:36;;;;;;;4.45;2.27;;;;;;;13.68;70.19;99441.53;1731575;82;21014;-76
2022/07/21 03:38:03;;;;;;;3.95;1.80;;;;;;;13.69;70.18;99431.84;1731854;82;20999;-76
2022/07/21 03:40:31;;;;;;;7.20;2.08;;;;;;;13.71;70.32;99441.39;1731665;82;21055;-76
2022/07/21 03:43:00;;;;;;;5.17;2.08;;;;;;;13.77;70.08;99436.73;1739251;81;21108;-76
2022/07/21 03:45:29;;;;;;;5.87;2.10;;;;;;;13.82;69.96;99433.39;1739476;82;21986;-76
2022/07/21 03:47:57;;;;;;;5.70;1.80;;;;;;;13.86;69.64;99432.33;1739398;82;21014;-76
2022/07/21 03:50:25;;;;;;;9.73;2.12;;;;;;;13.91;69.63;99438.25;1739555;81;21093;-76
2022/07/21 03:52:52;;;;;;;7.05;1.87;;;;;;;13.96;69.40;99433.58;1739394;82;21674;-75
2022/07/21 03:55:20;;;;;;;4.85;1.75;;;;;;;14.01;69.26;99431.56;1739435;82;21049;-76
2022/07/21 03:57:51;;;;;;;6.42;1.87;;;;;;;14.04;69.23;99431.41;1739590;82;20994;-76
2022/07/21 04:00:25;;;;;;;8.40;2.00;;;;;;;14.09;69.20;99425.42;1739293;82;20991;-76
2022/07/21 04:02:52;;;;;;;9.03;2.10;;;;;;;14.16;69.24;99423.80;1739649;81;21084;-76
2022/07/21 04:05:19;;;;;;;12.93;2.33;;;;;;;14.22;69.08;99420.81;1739465;82;21061;-75
2022/07/21 04:07:48;;;;;;;6.92;2.20;;;;;;;14.29;68.85;99414.30;1739687;82;21366;-76
2022/07/21 04:10:20;;;;;;;15.95;2.60;;;;;;;14.36;68.91;99422.78;1739269;82;21457;-76
2022/07/21 04:12:48;;;;;;;19.35;2.83;;;;;;;14.42;68.98;99421.95;1739529;82;21163;-76
2022/07/21 04:15:15;;;;;;;11.78;2.30;;;;;;;14.49;69.06;99424.70;1739499;82;21113;-75
2022/07/21 04:17:43;;;;;;;10.35;3.08;;;;;;;14.59;68.34;99420.27;1739338;82;20994;-75
2022/07/21 04:20:10;;;;;;;7.90;2.58;;;;;;;14.67;68.10;99422.04;1733704;82;21499;-76
2022/07/21 04:22:38;;;;;;;17.10;3.00;;;;;;;14.74;67.54;99420.77;1732482;82;21506;-77
2022/07/21 04:25:07;;;;;;;12.45;2.22;;;;;;;14.80;67.74;99413.83;1732309;82;21583;-76
2022/07/21 04:27:34;;;;;;;13.40;2.02;;;;;;;14.90;67.52;99423.94;1732365;82;22092;-75
2022/07/21 04:30:01;;;;;;;15.35;2.60;;;;;;;14.97;67.40;99424.83;1731992;82;21013;-76
2022/07/21 04:32:27;;;;;;;6.33;2.00;;;;;;;15.04;67.31;99421.38;1732672;82;20989;-76
2022/07/21 04:34:53;;;;;;;9.80;2.22;;;;;;;15.12;66.99;99412.55;1732504;82;21113;-77
2022/07/21 04:37:20;;;;;;;8.45;2.00;;;;;;;15.20;66.57;99405.52;1732522;82;21068;-77
2022/07/21 04:39:47;;;;;;;15.38;2.90;;;;;;;15.30;66.46;99408.03;1732136;82;21112;-77
2022/07/21 04:42:14;;;;;;;5.92;2.17;;;;;;;15.38;65.74;99411.11;1732136;82;21091;-77
2022/07/21 04:44:41;;;;;;;9.15;1.90;;;;;;;15.47;65.98;99419.02;1732378;82;21036;-77
2022/07/21 04:47:07;;;;;;;2.65;1.60;;;;;;;15.58;66.16;99420.59;1732223;82;21220;-76
2022/07/21 04:49:35;;;;;;;1.25;1.12;;;;;;;15.68;65.64;99424.88;1732003;82;21091;-77
2022/07/21 04:52:02;;;;;;;7.12;1.17;;;;;;;15.78;65.47;99423.47;1732284;82;21145;-77
2022/07/21 04:54:29;;;;;;;2.35;1.30;;;;;;;15.86;65.31;99419.02;1732373;82;21143;-77
2022/07/21 04:56:56;;;;;;;4.83;1.47;;;;;;;15.94;64.58;99424.74;1732269;82;21119;-75
2022/07/21 04:59:22;;;;;;;8.13;1.98;;;;;;;15.99;64.12;99421.83;1741075;81;21270;-77
2022/07/21 05:01:49;;;;;;;9.73;2.70;;;;;;;16.06;64.07;99425.83;1752383;81;21581;-77
2022/07/21 05:04:18;;;;;;;5.85;2.12;;;;;;;16.13;63.75;99422.34;1752497;81;21071;-77
2022/07/21 05:06:44;;;;;;;7.10;1.70;;;;;;;16.20;63.97;99428.98;1752999;81;23074;-77
2022/07/21 05:09:11;;;;;;;6.80;1.62;;;;;;;16.29;63.81;99429.78;1752703;81;21133;-77
2022/07/21 05:11:38;;;;;;;7.62;1.98;;;;;;;16.37;63.44;99427.13;1752833;81;21082;-76
2022/07/21 05:14:04;;;;;;;8.55;2.08;;;;;;;16.42;63.04;99425.05;1752317;81;21059;-77
2022/07/21 05:16:31;;;;;;;6.53;1.70;;;;;;;16.47;63.09;99429.13;1752773;81;21047;-77
2022/07/21 05:18:59;;;;;;;8.25;1.70;;;;;;;16.53;63.25;99427.92;1752399;81;21122;-77
2022/07/21 05:21:26;;;;;;;12.10;1.77;;;;;;;16.59;63.26;99428.86;1761032;80;21145;-77
2022/07/21 05:23:52;;;;;;;13.40;1.85;;;;;;;16.62;62.45;99426.02;1781626;79;21849;-77
2022/07/21 05:26:18;;;;;;;5.60;1.60;;;;;;;16.69;63.19;99423.39;1781168;80;22079;-76
2022/07/21 05:28:45;;;;;;;5.05;1.67;;;;;;;16.75;62.64;99415.98;1781824;80;21018;-77
2022/07/21 05:31:12;;;;;;;4.47;1.95;;;;;;;16.84;63.13;99410.09;1778825;80;21134;-76
2022/07/21 05:33:38;;;;;;;11.50;2.08;;;;;;;16.94;62.90;99413.06;1740583;82;21054;-77
2022/07/21 05:36:05;;;;;;;8.50;1.47;;;;;;;17.02;62.52;99406.31;1739531;82;21046;-77
2022/07/21 05:38:32;;;;;;;12.37;1.72;;;;;;;17.13;60.95;99411.42;1739582;82;21140;-77
2022/07/21 05:40:59;;;;;;;7.20;1.37;;;;;;;17.23;61.67;99411.20;1739586;82;21085;-77
2022/07/21 05:43:26;;;;;;;7.87;1.80;;;;;;;17.33;61.76;99416.80;1739294;82;21013;-76
2022/07/21 05:45:53;;;;;;;3.70;1.50;;;;;;;17.42;61.23;99407.75;1739873;82;21057;-76
2022/07/21 05:48:19;;;;;;;10.80;2.00;;;;;;;17.51;60.25;99413.44;1739454;82;21109;-77
2022/07/21 05:50:46;;;;;;;8.25;1.72;;;;;;;17.56;60.30;99407.34;1739429;82;21128;-77
2022/07/21 05:53:13;;;;;;;8.48;1.60;;;;;;;17.62;60.31;99408.27;1739170;82;21076;-76
2022/07/21 05:55:41;;;;;;;5.35;1.30;;;;;;;17.69;60.06;99397.59;1739318;82;21070;-75
2022/07/21 05:58:07;;;;;;;5.85;1.50;;;;;;;17.78;59.76;99404.95;1739280;82;20995;-77
2022/07/21 06:00:34;;;;;;;10.43;1.30;;;;;;;17.87;60.35;99398.68;1739105;82;21839;-76
2022/07/21 06:03:00;;;;;;;6.20;1.50;;;;;;;17.98;59.77;99406.33;1739237;82;21085;-76
2022/07/21 06:05:27;;;;;;;4.45;1.37;;;;;;;18.10;60.01;99408.64;1739346;81;21157;-76
2022/07/21 06:07:53;;;;;;;4.92;1.25;;;;;;;18.22;58.86;99403.45;1739555;82;22314;-76
2022/07/21 06:10:20;;;;;;;8.60;1.60;;;;;;;18.30;59.22;99404.62;1739161;82;21201;-76
2022/07/21 06:12:48;;;;;;;2.70;1.30;;;;;;;18.40;59.32;99403.52;1739190;82;21576;-76
2022/07/21 06:15:15;;;;;;;6.25;1.17;;;;;;;18.51;58.93;99407.63;1739040;82;21002;-77
2022/07/21 06:17:45;;;;;;;11.73;2.08;;;;;;;18.64;58.43;99390.29;1739007;82;21556;-77
2022/07/21 06:20:12;;;;;;;6.22;1.30;;;;;;;18.74;57.15;99387.84;1739443;82;21655;-76
2022/07/21 06:22:39;;;;;;;12.82;1.50;;;;;;;18.82;57.32;99396.14;1761448;79;21039;-74
2022/07/21 06:25:06;;;;;;;9.88;2.05;;;;;;;18.91;57.76;99392.88;1772727;80;21165;-75
2022/07/21 06:27:33;;;;;;;17.07;7.75;;;;;;;19.00;56.52;99395.84;1772892;80;20957;-76
2022/07/21 06:30:00;;;;;;;7.15;2.83;;;;;;;19.07;55.96;99389.95;1773300;80;21024;-76
2022/07/21 06:32:28;;;;;;;9.30;1.45;;;;;;;19.15;55.92;99410.74;1772962;80;21122;-76
2022/07/21 06:34:55;;;;;;;7.50;1.12;;;;;;;19.21;54.54;99392.10;1772915;80;21086;-77
2022/07/21 06:37:22;;;;;;;3.00;0.95;;;;;;;19.27;53.87;99379.17;1772982;80;21129;-76
2022/07/21 06:39:49;;;;;;;8.53;2.35;;;;;;;19.33;55.47;99384.53;1772803;80;20981;-77
2022/07/21 06:42:16;;;;;;;10.28;2.30;;;;;;;19.46;54.86;99389.83;1773359;80;21005;-76
2022/07/21 06:44:42;;;;;;;7.83;1.17;;;;;;;19.53;53.99;99384.89;1772879;80;21032;-77
2022/07/21 06:47:09;;;;;;;6.03;0.80;;;;;;;19.60;54.08;99378.13;1772817;80;21146;-77
2022/07/21 06:49:35;;;;;;;5.75;1.22;;;;;;;19.63;54.02;99373.90;1772945;80;21158;-77
2022/07/21 06:52:02;;;;;;;4.80;0.80;;;;;;;19.70;53.38;99386.30;1773090;80;21071;-76
2022/07/21 06:54:29;;;;;;;5.62;0.80;;;;;;;19.75;53.32;99367.66;1772629;80;21527;-77
2022/07/21 06:56:56;;;;;;;1.35;0.70;;;;;;;19.83;52.17;99378.63;1749920;80;21111;-76
2022/07/21 06:59:22;;;;;;;5.58;0.50;;;;;;;19.89;51.26;99370.66;1733875;82;21119;-76
2022/07/21 07:01:49;;;;;;;3.30;0.72;;;;;;;19.93;52.01;99376.61;1733725;82;21540;-77
2022/07/21 07:04:16;;;;;;;9.15;0.90;;;;;;;20.00;51.45;99367.16;1733967;82;21095;-76
2022/07/21 07:06:42;;;;;;;3.52;0.88;;;;;;;20.04;50.15;99376.16;1733445;82;21601;-76
2022/07/21 07:09:10;;;;;;;5.53;0.88;;;;;;;20.07;49.65;99370.20;1733619;82;21539;-76
2022/07/21 07:11:39;;;;;;;9.98;1.05;;;;;;;20.11;50.46;99369.87;1679363;85;21131;-77
2022/07/21 07:14:07;;;;;;;4.67;0.80;;;;;;;20.16;50.47;99364.17;1678857;85;39978;-77
2022/07/21 07:16:34;;;;;;;3.47;1.00;;;;;;;20.20;50.75;99362.95;1678759;85;21119;-77
2022/07/21 07:19:00;;;;;;;2.98;0.80;;;;;;;20.26;50.70;99354.48;1678929;85;21152;-76
2022/07/21 07:21:27;;;;;;;6.97;0.65;;;;;;;20.35;50.52;99362.26;1679098;84;21103;-77
2022/07/21 07:23:53;;;;;;;4.58;1.02;;;;;;;20.46;51.06;99361.41;1719697;83;21047;-77
2022/07/21 07:26:20;;;;;;;5.40;1.07;;;;;;;20.52;50.04;99362.27;1690760;84;21132;-76
2022/07/21 07:28:47;;;;;;;4.42;0.95;;;;;;;20.57;51.11;99353.41;1690586;84;21003;-76
2022/07/21 07:31:13;;;;;;;3.08;0.60;;;;;;;20.67;50.82;99347.73;1690645;84;21547;-76
2022/07/21 07:33:39;;;;;;;5.65;1.57;;;;;;;20.76;49.64;99348.81;1715311;83;21105;-77
2022/07/21 07:36:10;;;;;;;2.92;0.57;;;;;;;20.84;49.54;99345.54;1715080;83;21085;-76
2022/07/21 07:38:35;;;;;;;5.00;0.60;;;;;;;20.91;48.43;99349.41;1714831;83;22325;-76
2022/07/21 07:41:03;;;;;;;3.33;0.62;;;;;;;20.94;47.77;99344.66;1686146;85;21083;-76
2022/07/21 07:43:30;;;;;;;1.45;0.50;;;;;;;20.96;47.38;99356.58;1715019;83;21008;-76
2022/07/21 07:46:01;;;;;;;3.17;1.40;;;;;;;20.97;48.64;99338.23;1715217;83;22224;-76
2022/07/21 07:48:27;;;;;;;5.40;0.90;;;;;;;21.01;47.35;99345.02;1715129;83;21040;-76
2022/07/21 07:50:54;;;;;;;5.80;0.85;;;;;;;21.09;47.01;99347.93;1715135;83;21880;-76
2022/07/21 07:53:20;;;;;;;6.45;0.95;;;;;;;21.17;46.38;99347.81;1715183;83;21001;-77
2022/07/21 07:55:47;;;;;;;0.68;0.50;;;;;;;21.18;46.18;99337.45;1715243;83;21052;-76
2022/07/21 07:58:13;;;;;;;3.55;0.50;;;;;;;21.18;47.62;99327.59;1715102;83;21130;-77
2022/07/21 08:00:40;;;;;;;4.65;0.70;;;;;;;21.27;46.24;99348.77;1715173;83;21088;-78
2022/07/21 08:03:07;;;;;;;2.27;0.60;;;;;;;21.34;46.71;99337.91;1715015;83;21244;-77
2022/07/21 08:05:34;;;;;;;4.42;0.90;;;;;;;21.41;46.67;99328.39;1715201;83;21075;-77
2022/07/21 08:08:01;;;;;;;6.25;0.50;;;;;;;21.52;47.11;99331.06;1715146;83;21059;-76
2022/07/21 08:10:28;;;;;;;2.98;0.50;;;;;;;21.57;46.33;99333.36;1715200;83;21078;-76
2022/07/21 08:12:55;;;;;;;0.80;0.50;;;;;;;21.61;46.80;99325.92;1714905;83;22284;-76
2022/07/21 08:15:22;;;;;;;2.00;0.70;;;;;;;21.64;45.71;99318.98;1715069;83;21075;-75
2022/07/21 08:17:48;;;;;;;3.00;0.50;;;;;;;21.70;46.09;99325.14;1715414;83;21111;-75
2022/07/21 08:20:15;;;;;;;4.58;0.80;;;;;;;21.78;46.54;99312.45;1715196;83;21079;-75
2022/07/21 08:22:42;;;;;;;6.92;0.70;;;;;;;21.88;46.87;99308.84;1714653;83;21507;-75
2022/07/21 08:25:08;;;;;;;3.45;0.60;;;;;;;22.01;45.91;99310.50;1714529;83;20961;-75
2022/07/21 08:27:35;;;;;;;1.70;0.60;;;;;;;22.11;46.55;99309.20;1714676;83;21560;-75
2022/07/21 08:30:03;;;;;;;1.10;0.70;;;;;;;22.20;46.26;99317.30;1714418;83;21071;-75
2022/07/21 08:32:29;;;;;;;2.83;0.40;;;;;;;22.26;44.64;99313.26;1714588;83;21084;-75
2022/07/21 08:34:56;;;;;;;9.30;0.60;;;;;;;22.30;44.36;99304.48;1714472;83;21060;-75
2022/07/21 08:37:22;;;;;;;4.05;0.55;;;;;;;22.34;44.92;99304.56;1691528;83;21087;-76
2022/07/21 08:39:49;;;;;;;5.05;0.72;;;;;;;22.39;44.69;99292.95;1714635;83;21566;-75
2022/07/21 08:42:17;;;;;;;2.47;0.60;;;;;;;22.46;43.74;99295.47;1714635;83;21581;-76
2022/07/21 08:44:43;;;;;;;6.65;0.70;;;;;;;22.53;44.22;99300.64;1715027;83;21076;-75
2022/07/21 08:47:10;;;;;;;2.22;0.57;;;;;;;22.62;44.62;99291.77;1714498;83;21109;-75
2022/07/21 08:49:36;;;;;;;10.00;0.70;;;;;;;22.74;44.02;99282.29;1714496;83;21081;-75
2022/07/21 08:52:05;;;;;;;2.17;0.60;;;;;;;22.77;42.60;99284.70;1714933;83;21136;-76
2022/07/21 08:54:32;;;;;;;1.37;0.50;;;;;;;22.71;43.37;99283.43;1669065;83;21564;-76
2022/07/21 08:56:58;;;;;;;3.40;0.50;;;;;;;22.76;43.53;99274.95;1714707;83;21115;-75
2022/07/21 08:59:26;;;;;;;3.98;0.75;;;;;;;22.85;43.56;99270.59;1714486;83;21071;-76
2022/07/21 09:01:53;;;;;;;4.20;0.60;;;;;;;22.97;44.93;99272.19;1714962;83;21479;-75
2022/07/21 09:04:27;;;;;;;5.47;0.90;;;;;;;23.02;42.23;99272.62;1714348;83;21137;-76
2022/07/21 09:07:06;;;;;;;;;;;;;;;22.93;42.73;99267.59;1716104;82;21078;-76
2022/07/21 09:09:34;;;;;;;5.08;0.65;;;;;;;22.89;42.67;99270.69;1709106;83;20188;-76
2022/07/21 09:12:02;;;;;;;9.25;0.60;;;;;;;22.89;43.54;99270.18;1703183;84;21056;-76
2022/07/21 09:14:32;;;;;;;1.45;0.50;;;;;;;22.96;43.90;99267.33;1703080;84;21613;-76
2022/07/21 09:17:02;;;;;;;3.45;0.60;;;;;;;23.11;43.66;99262.91;1703453;84;21121;-76
2022/07/21 09:19:35;;;;;;;1.37;0.80;;;;;;;23.25;44.25;99262.51;1703362;83;21167;-77
2022/07/21 09:22:04;;;;;;;0.60;0.50;;;;;;;23.41;43.45;99261.09;1703420;84;21178;-77
2022/07/21 09:24:42;;;;;;;4.25;0.60;;;;;;;23.54;42.30;99257.62;1713723;83;21543;-77
2022/07/21 09:27:13;;;;;;;2.70;0.70;;;;;;;23.60;42.62;99259.72;1710788;83;21028;-77
2022/07/21 09:29:52;;;;;;;7.12;1.07;;;;;;;23.66;42.77;99252.45;1714437;83;21194;-76
2022/07/21 09:32:34;;;;;;;6.10;1.02;;;;;;;23.72;41.39;99247.85;1714029;83;21075;-78
2022/07/21 09:35:10;;;;;;;3.35;0.70;;;;;;;23.71;41.45;99238.59;1713786;83;21098;-77
2022/07/21 09:37:37;;;;;;;5.80;0.80;;;;;;;23.70;41.75;99239.09;1714335;83;21004;-77
2022/07/21 09:40:07;;;;;;;5.78;0.60;;;;;;;23.69;42.34;99241.42;1710032;83;21750;-76
2022/07/21 09:42:40;;;;;;;4.55;0.82;;;;;;;23.76;41.43;99240.85;1725593;83;21136;-77
2022/07/21 09:45:14;;;;;;;5.67;0.50;;;;;;;23.82;40.85;99237.59;1725880;83;21088;-76
2022/07/21 09:47:42;;;;;;;4.53;0.75;;;;;;;23.90;41.11;99240.41;1725675;83;21870;-76
2022/07/21 09:50:12;;;;;;;1.67;0.70;;;;;;;23.94;41.38;99231.08;1725901;83;21025;-75
2022/07/21 09:52:41;;;;;;;11.73;0.65;;;;;;;24.01;42.57;99236.22;1725650;83;21087;-76
2022/07/21 09:55:14;;;;;;;1.17;0.57;;;;;;;24.11;40.19;99226.28;1725811;83;21174;-75
2022/07/21 09:57:41;;;;;;;1.95;0.60;;;;;;;24.10;40.25;99225.91;1725455;83;21084;-75
2022/07/21 10:00:12;;;;;;;5.20;0.60;;;;;;;24.14;40.58;99220.25;1726035;83;21029;-76
2022/07/21 10:02:43;;;;;;;4.58;0.80;;;;;;;24.22;40.43;99227.08;1725777;83;21049;-76
2022/07/21 10:05:13;;;;;;;0.75;0.60;;;;;;;24.22;40.32;99217.67;1725921;83;21116;-76
2022/07/21 10:07:45;;;;;;;7.10;0.80;;;;;;;24.14;39.88;99224.28;1725247;83;21567;-76
2022/07/21 10:10:12;;;;;;;3.00;0.72;;;;;;;24.05;40.56;99217.45;1726053;83;21065;-77
2022/07/21 10:12:40;;;;;;;13.62;1.07;;;;;;;24.13;41.55;99222.10;1725870;83;21512;-76
2022/07/21 10:15:08;;;;;;;5.35;0.90;;;;;;;24.30;41.23;99212.41;1725847;83;21590;-76
2022/07/21 10:17:35;;;;;;;3.60;1.12;;;;;;;24.40;41.71;99210.52;1726239;83;21001;-75
2022/07/21 10:20:23;;;;;;;5.92;1.00;;;;;;;24.43;39.70;99199.97;1725762;83;21251;-76
2022/07/21 10:23:15;;;;;;;2.45;0.80;;;;;;;24.31;40.42;99211.42;1725663;83;21069;-77
2022/07/21 10:25:43;;;;;;;1.27;0.72;;;;;;;24.20;40.45;99199.51;1778411;80;21063;-77
2022/07/21 10:28:18;;;;;;;8.18;1.00;;;;;;;24.26;41.98;99206.48;1778269;80;21444;-76
2022/07/21 10:30:50;;;;;;;8.73;0.90;;;;;;;24.40;40.89;99199.76;1778368;80;21377;-77
2022/07/21 10:33:20;;;;;;;1.00;0.88;;;;;;;24.40;40.24;99215.89;1778771;80;20987;-76
2022/07/21 10:35:50;;;;;;;6.95;0.80;;;;;;;24.42;41.61;99215.74;1778323;80;21036;-76
2022/07/21 10:38:29;;;;;;;2.77;0.90;;;;;;;24.55;42.49;99211.41;1778630;80;21205;-76
2022/07/21 10:40:58;;;;;;;3.60;1.20;;;;;;;24.76;41.32;99217.33;1778345;80;20988;-77
2022/07/21 10:43:30;;;;;;;3.52;0.88;;;;;;;24.91;41.89;99206.06;1778260;80;21103;-76
2022/07/21 10:45:58;;;;;;;2.47;0.98;;;;;;;25.02;42.18;99210.72;1778506;80;21126;-77
2022/07/21 10:48:46;;;;;;;4.25;1.42;;;;;;;25.13;40.30;99203.41;1778270;80;21055;-76
2022/07/21 10:51:15;;;;;;;2.22;0.75;;;;;;;25.20;41.65;99201.30;1747676;80;21052;-75
2022/07/21 10:53:45;;;;;;;4.72;1.62;;;;;;;25.34;41.49;99200.44;1778089;80;21578;-77
2022/07/21 10:56:31;;;;;;;1.40;0.70;;;;;;;25.40;40.20;99197.10;1778370;80;22031;-77
2022/07/21 10:58:58;;;;;;;4.47;1.05;;;;;;;25.44;39.82;99190.42;1778691;80;21110;-80
2022/07/21 11:01:25;;;;;;;6.37;1.10;;;;;;;25.42;40.86;99193.77;1778150;80;21142;-80
2022/07/21 11:04:10;;;;;;;8.93;1.10;;;;;;;25.38;39.80;99204.50;1778356;80;21130;-79
2022/07/21 11:06:40;;;;;;;;;;;;;;;25.37;39.64;99206.86;1781220;80;21672;-79
2022/07/21 11:09:10;;;;;;;9.38;1.45;;;;;;;25.42;40.92;99205.89;1778371;80;20145;-74
2022/07/21 11:11:42;;;;;;;6.67;1.25;;;;;;;25.47;41.61;99194.63;1778281;80;21051;-74
2022/07/21 11:14:18;;;;;;;2.58;1.60;;;;;;;25.58;40.09;99192.52;1764679;80;21801;-74
2022/07/21 11:16:54;;;;;;;4.67;1.27;;;;;;;25.67;40.71;99197.98;1752621;81;21578;-81
2022/07/21 11:19:48;;;;;;;10.53;1.50;;;;;;;25.80;40.57;99193.52;1752915;81;20999;-82
2022/07/21 11:22:28;;;;;;;1.47;1.03;;;;;;;25.88;38.90;99185.48;1752980;81;21051;-81
2022/07/21 11:25:00;;;;;;;4.33;1.25;;;;;;;25.77;40.05;99187.45;1761314;80;21127;-81
2022/07/21 11:27:28;;;;;;;1.32;1.20;;;;;;;25.72;40.77;99176.78;1762533;81;21187;-81
2022/07/21 11:29:58;;;;;;;3.20;1.50;;;;;;;25.61;39.75;99181.12;1763065;81;21174;-80
2022/07/21 11:32:24;;;;;;;4.37;1.45;;;;;;;25.50;39.38;99180.85;1760577;80;21088;-83
2022/07/21 11:34:54;;;;;;;4.20;1.45;;;;;;;25.48;40.93;99176.97;1747878;81;22645;-81
2022/07/21 11:37:33;;;;;;;4.75;1.70;;;;;;;25.59;39.04;99182.11;1747401;82;21130;-81
2022/07/21 11:40:00;;;;;;;4.65;1.55;;;;;;;25.65;40.29;99181.12;1742783;82;21038;-79
2022/07/21 11:42:27;;;;;;;3.90;1.50;;;;;;;25.66;39.75;99180.97;1748070;82;21064;-81